Time;durP1;ratioP1;P1;durP2;ratioP2;P2;SDS_P1;SDS_P2;PMS_P1;PMS_P2;Temp;Humidity;BMP_temperature;BMP_pressure;BME280_temperature;BME280_humidity;BME280_pressure;Samples;Min_cycle;Max_cycle;Signal;HPM_P1;HPM_P2
2023/04/18 00:01:24;;;;;;;12.25;5.45;;;12.60;68.00;;;;;;2183265;58;21000;-74
2023/04/18 00:03:52;;;;;;;11.60;5.12;;;12.50;67.90;;;;;;2395491;57;20955;-74
2023/04/18 00:06:20;;;;;;;10.77;4.78;;;12.50;67.90;;;;;;2394955;57;20987;-74
2023/04/18 00:08:47;;;;;;;7.03;3.65;;;12.50;68.00;;;;;;2183247;58;20964;-73
2023/04/18 00:11:13;;;;;;;7.03;3.53;;;12.50;68.00;;;;;;2394633;57;21080;-74
2023/04/18 00:13:43;;;;;;;6.30;2.80;;;12.50;68.00;;;;;;2182980;58;20995;-71
2023/04/18 00:16:12;;;;;;;4.50;2.42;;;12.50;68.00;;;;;;2394639;57;21091;-74
2023/04/18 00:18:38;;;;;;;4.40;2.30;;;12.50;68.00;;;;;;2396248;57;21051;-71
2023/04/18 00:21:08;;;;;;;4.22;2.10;;;12.40;67.80;;;;;;2395187;57;21075;-72
2023/04/18 00:23:34;;;;;;;3.25;1.80;;;12.40;67.70;;;;;;2182924;58;20966;-74
2023/04/18 00:26:02;;;;;;;4.10;1.90;;;12.40;67.80;;;;;;2177070;57;21003;-72
2023/04/18 00:28:28;;;;;;;3.83;2.10;;;12.40;67.80;;;;;;2182482;58;21492;-74
2023/04/18 00:30:55;;;;;;;3.72;2.17;;;12.30;67.70;;;;;;2182857;58;21524;-72
2023/04/18 00:33:21;;;;;;;3.92;2.10;;;12.30;67.60;;;;;;2181651;58;20944;-73
2023/04/18 00:35:47;;;;;;;3.87;2.08;;;12.30;67.50;;;;;;2183517;58;20983;-73
2023/04/18 00:38:14;;;;;;;3.47;1.83;;;12.30;67.50;;;;;;2394598;57;20940;-73
2023/04/18 00:40:40;;;;;;;3.33;1.80;;;12.30;67.50;;;;;;2385357;57;20999;-73
2023/04/18 00:43:06;;;;;;;3.08;1.67;;;12.20;67.30;;;;;;2182801;58;20971;-71
2023/04/18 00:45:34;;;;;;;4.12;1.87;;;12.20;67.30;;;;;;2395232;57;20963;-74
2023/04/18 00:48:00;;;;;;;5.55;2.70;;;12.20;67.20;;;;;;2182152;58;21021;-73
2023/04/18 00:50:26;;;;;;;6.95;2.50;;;12.10;67.10;;;;;;2177473;57;20966;-74
2023/04/18 00:52:52;;;;;;;4.20;2.00;;;12.10;67.10;;;;;;2183414;58;21047;-73
2023/04/18 00:55:19;;;;;;;3.95;1.95;;;12.00;67.00;;;;;;2393976;57;20979;-73
2023/04/18 00:57:45;;;;;;;4.07;2.35;;;12.00;67.00;;;;;;2384241;56;21052;-72
2023/04/18 01:00:13;;;;;;;3.50;1.83;;;12.00;67.00;;;;;;2388745;57;21058;-73
2023/04/18 01:02:40;;;;;;;3.30;1.87;;;11.90;66.90;;;;;;2183500;58;20987;-72
2023/04/18 01:05:07;;;;;;;4.15;2.03;;;11.90;66.90;;;;;;2385348;57;21024;-71
2023/04/18 01:07:36;;;;;;;3.22;2.00;;;11.80;66.90;;;;;;2394710;57;20987;-73
2023/04/18 01:10:03;;;;;;;3.35;2.03;;;11.80;66.90;;;;;;2182611;58;21092;-74
2023/04/18 01:12:29;;;;;;;3.30;1.87;;;11.80;67.00;;;;;;2183027;58;21074;-72
2023/04/18 01:14:56;;;;;;;3.67;1.98;;;11.70;66.90;;;;;;2182941;58;20998;-71
2023/04/18 01:17:23;;;;;;;4.15;2.05;;;11.70;67.00;;;;;;2182141;58;21011;-74
2023/04/18 01:19:51;;;;;;;4.00;2.30;;;11.70;67.00;;;;;;2183156;58;21028;-72
2023/04/18 01:22:18;;;;;;;4.15;2.28;;;11.60;66.90;;;;;;2394028;57;21511;-71
2023/04/18 01:24:45;;;;;;;3.72;2.20;;;11.60;66.90;;;;;;2183334;58;21052;-72
2023/04/18 01:27:14;;;;;;;3.15;1.80;;;11.60;66.90;;;;;;2182309;58;20966;-72
2023/04/18 01:29:40;;;;;;;3.03;1.48;;;11.50;66.90;;;;;;2177827;57;20972;-71
2023/04/18 01:32:07;;;;;;;2.67;1.33;;;11.50;66.80;;;;;;2178864;57;21050;-72
2023/04/18 01:34:33;;;;;;;2.72;1.40;;;11.50;66.80;;;;;;2394887;57;21043;-74
2023/04/18 01:37:02;;;;;;;2.87;1.52;;;11.40;66.60;;;;;;2395090;57;21080;-73
2023/04/18 01:39:29;;;;;;;3.08;1.50;;;11.40;66.60;;;;;;2182545;58;21036;-73
2023/04/18 01:41:55;;;;;;;2.95;1.40;;;11.30;66.50;;;;;;2393765;57;21022;-73
2023/04/18 01:44:21;;;;;;;2.80;1.40;;;11.30;66.40;;;;;;2182047;58;20974;-73
2023/04/18 01:46:48;;;;;;;2.42;1.30;;;11.20;66.30;;;;;;2182633;58;20983;-74
2023/04/18 01:49:15;;;;;;;3.03;1.60;;;11.20;66.30;;;;;;2182270;58;21030;-72
2023/04/18 01:51:42;;;;;;;3.15;1.85;;;11.10;66.30;;;;;;2390558;57;21060;-73
2023/04/18 01:54:08;;;;;;;3.12;1.73;;;11.10;66.40;;;;;;2177946;58;21051;-74
2023/04/18 01:56:35;;;;;;;2.92;1.50;;;11.00;66.40;;;;;;2394653;57;21025;-73
2023/04/18 01:59:02;;;;;;;2.53;1.30;;;11.00;66.40;;;;;;2182658;58;21078;-73
2023/04/18 02:01:28;;;;;;;3.15;1.48;;;10.90;66.30;;;;;;2395238;57;20979;-73
2023/04/18 02:03:55;;;;;;;2.83;1.45;;;10.90;66.30;;;;;;2395653;57;20991;-74
2023/04/18 02:06:22;;;;;;;3.50;1.80;;;10.90;66.30;;;;;;2394467;57;21039;-73
2023/04/18 02:08:48;;;;;;;4.15;1.70;;;10.80;66.20;;;;;;2183021;58;21026;-72
2023/04/18 02:11:14;;;;;;;3.75;1.98;;;10.80;66.20;;;;;;2179520;57;21311;-72
2023/04/18 02:13:41;;;;;;;3.67;2.15;;;10.70;66.20;;;;;;2180731;57;21014;-72
2023/04/18 02:16:11;;;;;;;3.62;2.10;;;10.70;66.20;;;;;;2182341;58;21031;-71
2023/04/18 02:18:38;;;;;;;4.20;2.47;;;10.60;66.10;;;;;;2394688;57;20991;-71
2023/04/18 02:21:04;;;;;;;4.07;2.33;;;10.60;66.30;;;;;;2182484;58;21020;-73
2023/04/18 02:23:31;;;;;;;4.07;2.47;;;10.60;66.30;;;;;;2395226;57;20967;-73
2023/04/18 02:25:58;;;;;;;6.82;3.17;;;10.50;66.30;;;;;;2394686;57;20967;-73
2023/04/18 02:28:24;;;;;;;5.30;2.78;;;10.50;66.40;;;;;;2178684;57;21037;-72
2023/04/18 02:30:51;;;;;;;6.15;3.28;;;10.40;66.50;;;;;;2181134;57;21136;-71
2023/04/18 02:33:17;;;;;;;4.80;2.75;;;10.40;66.50;;;;;;2389573;57;20978;-71
2023/04/18 02:35:43;;;;;;;5.65;3.28;;;10.40;66.60;;;;;;2395352;57;21055;-72
2023/04/18 02:38:09;;;;;;;6.10;3.87;;;10.30;66.60;;;;;;2394800;57;21054;-73
2023/04/18 02:40:36;;;;;;;5.07;3.05;;;10.30;66.60;;;;;;2394658;57;21031;-72
2023/04/18 02:43:02;;;;;;;5.12;3.17;;;10.30;66.70;;;;;;2395110;57;20995;-72
2023/04/18 02:45:28;;;;;;;5.15;2.55;;;10.30;66.80;;;;;;2394808;57;20975;-71
2023/04/18 02:47:55;;;;;;;4.53;2.85;;;10.30;66.80;;;;;;2394851;57;21015;-72
2023/04/18 02:50:23;;;;;;;6.75;3.53;;;10.30;66.80;;;;;;2394162;57;21019;-71
2023/04/18 02:52:49;;;;;;;6.30;3.53;;;10.20;66.80;;;;;;2174502;57;20987;-74
2023/04/18 02:55:15;;;;;;;6.00;3.42;;;10.20;66.80;;;;;;2394734;57;20975;-72
2023/04/18 02:57:45;;;;;;;6.00;2.90;;;10.20;66.90;;;;;;2177454;57;20963;-71
2023/04/18 03:00:14;;;;;;;5.12;3.03;;;10.20;67.00;;;;;;2184171;58;21032;-73
2023/04/18 03:02:41;;;;;;;4.95;3.00;;;10.10;66.90;;;;;;2175676;57;21929;-72
2023/04/18 03:05:07;;;;;;;5.32;3.28;;;10.10;66.90;;;;;;2182692;58;21076;-72
2023/04/18 03:07:37;;;;;;;5.50;3.42;;;10.10;67.00;;;;;;2394271;57;20991;-73
2023/04/18 03:10:04;;;;;;;5.25;2.92;;;10.10;67.10;;;;;;2182038;58;20995;-70
2023/04/18 03:12:30;;;;;;;5.05;2.58;;;10.10;68.00;;;;;;2182147;58;20991;-72
2023/04/18 03:14:57;;;;;;;4.95;2.75;;;10.00;67.30;;;;;;2184979;58;21094;-72
2023/04/18 03:17:23;;;;;;;5.10;3.00;;;10.10;67.50;;;;;;2384782;57;20959;-71
2023/04/18 03:19:49;;;;;;;5.35;3.37;;;10.10;67.60;;;;;;2395157;57;20971;-73
2023/04/18 03:22:15;;;;;;;5.78;3.17;;;10.10;67.70;;;;;;2176058;57;20976;-73
2023/04/18 03:24:44;;;;;;;4.40;2.90;;;10.10;67.70;;;;;;2182237;57;21031;-74
2023/04/18 03:27:11;;;;;;;5.15;3.10;;;10.10;67.70;;;;;;2390241;57;21009;-74
2023/04/18 03:29:38;;;;;;;7.12;3.47;;;10.10;67.80;;;;;;2178760;57;21083;-73
2023/04/18 03:32:05;;;;;;;4.87;3.05;;;10.10;67.90;;;;;;2182646;58;21881;-74
2023/04/18 03:34:32;;;;;;;5.85;3.50;;;10.20;68.00;;;;;;2182126;58;21047;-72
2023/04/18 03:36:58;;;;;;;5.20;3.25;;;10.20;68.10;;;;;;2386392;57;21851;-73
2023/04/18 03:39:24;;;;;;;7.35;3.65;;;10.20;68.10;;;;;;2180526;57;20975;-73
2023/04/18 03:41:51;;;;;;;5.90;3.92;;;10.20;68.00;;;;;;2395877;57;21715;-70
2023/04/18 03:44:17;;;;;;;6.75;4.05;;;10.20;68.10;;;;;;2182717;58;21007;-73
2023/04/18 03:46:44;;;;;;;6.87;4.03;;;10.20;68.10;;;;;;2395074;57;21003;-74
2023/04/18 03:49:10;;;;;;;9.95;4.70;;;10.30;68.40;;;;;;2182492;58;21072;-72
2023/04/18 03:51:46;;;;;;;8.18;5.03;;;10.30;68.40;;;;;;2384377;57;21005;-72
2023/04/18 03:54:13;;;;;;;9.73;6.07;;;10.30;68.30;;;;;;2394367;57;21027;-74
2023/04/18 03:56:40;;;;;;;9.95;5.85;;;10.30;68.40;;;;;;2182130;58;20987;-74
2023/04/18 03:59:06;;;;;;;8.73;5.47;;;10.30;68.40;;;;;;2182161;58;21036;-72
2023/04/18 04:01:32;;;;;;;7.75;5.53;;;10.40;68.40;;;;;;2182393;58;20998;-71
2023/04/18 04:04:01;;;;;;;8.73;5.93;;;10.40;68.40;;;;;;2394458;57;21032;-72
2023/04/18 04:06:28;;;;;;;9.32;5.60;;;10.40;68.30;;;;;;2394832;57;20991;-74
2023/04/18 04:08:57;;;;;;;9.18;5.90;;;10.40;68.40;;;;;;2182004;58;21047;-73
2023/04/18 04:11:24;;;;;;;9.38;5.82;;;10.50;68.40;;;;;;2182452;59;21040;-72
2023/04/18 04:13:50;;;;;;;8.98;5.65;;;10.50;68.40;;;;;;2182323;58;21409;-73
2023/04/18 04:16:19;;;;;;;9.15;5.35;;;10.50;68.40;;;;;;2394633;57;21015;-74
2023/04/18 04:18:46;;;;;;;8.75;5.43;;;10.50;69.10;;;;;;2183264;58;20983;-71
2023/04/18 04:21:13;;;;;;;9.13;6.25;;;10.50;68.40;;;;;;2394704;57;20971;-74
2023/04/18 04:23:41;;;;;;;9.07;5.70;;;10.50;68.40;;;;;;2177267;57;21040;-74
2023/04/18 04:26:08;;;;;;;9.50;6.18;;;10.50;68.40;;;;;;2181891;58;21003;-72
2023/04/18 04:28:35;;;;;;;10.20;7.05;;;10.50;68.40;;;;;;2395031;57;20971;-72
2023/04/18 04:31:05;;;;;;;11.80;8.02;;;10.60;68.60;;;;;;2182812;58;20995;-74
2023/04/18 04:33:32;;;;;;;9.75;6.32;;;10.60;68.60;;;;;;2182708;58;21121;-74
2023/04/18 04:36:00;;;;;;;11.10;6.90;;;10.60;68.60;;;;;;2182516;58;21555;-72
2023/04/18 04:38:29;;;;;;;9.90;6.78;;;10.60;68.60;;;;;;2395090;57;20959;-72
2023/04/18 04:40:57;;;;;;;11.20;7.25;;;10.70;68.70;;;;;;2183040;58;21054;-72
2023/04/18 04:43:23;;;;;;;10.05;6.62;;;10.70;68.70;;;;;;2393679;57;20976;-72
2023/04/18 04:45:52;;;;;;;9.50;7.10;;;10.70;68.70;;;;;;2394800;57;20978;-72
2023/04/18 04:48:20;;;;;;;11.32;7.50;;;10.70;68.60;;;;;;2394100;57;20991;-72
2023/04/18 04:50:54;;;;;;;10.13;6.72;;;10.80;68.60;;;;;;2182526;58;22003;-72
2023/04/18 04:53:21;;;;;;;10.40;6.72;;;10.80;68.40;;;;;;2394088;57;21026;-74
2023/04/18 04:55:47;;;;;;;9.50;6.45;;;10.80;68.50;;;;;;2183107;58;21055;-72
2023/04/18 04:58:14;;;;;;;10.68;7.28;;;10.80;68.50;;;;;;2394583;57;21000;-72
2023/04/18 05:00:40;;;;;;;9.65;6.05;;;10.80;68.50;;;;;;2185525;58;20974;-72
2023/04/18 05:03:07;;;;;;;10.02;6.12;;;10.80;68.50;;;;;;2385736;57;20999;-74
2023/04/18 05:05:33;;;;;;;9.80;7.07;;;10.80;68.50;;;;;;2182347;58;21535;-74
2023/04/18 05:08:02;;;;;;;12.20;7.47;;;10.80;68.40;;;;;;2394673;57;21888;-72
2023/04/18 05:10:29;;;;;;;10.07;6.85;;;10.80;68.40;;;;;;2182671;58;21005;-72
2023/04/18 05:12:56;;;;;;;11.32;7.12;;;10.80;68.40;;;;;;2395798;57;21763;-72
2023/04/18 05:15:22;;;;;;;10.38;7.07;;;10.80;68.40;;;;;;2394977;57;20959;-74
2023/04/18 05:17:51;;;;;;;11.77;8.02;;;10.90;68.50;;;;;;2182796;58;21023;-72
2023/04/18 05:20:18;;;;;;;10.68;7.65;;;10.90;68.60;;;;;;2393218;57;21726;-74
2023/04/18 05:22:44;;;;;;;11.50;6.85;;;10.90;68.50;;;;;;2175358;57;21099;-74
2023/04/18 05:25:11;;;;;;;12.00;8.30;;;10.80;68.40;;;;;;2182729;58;20987;-75
2023/04/18 05:27:38;;;;;;;11.73;8.13;;;10.90;68.60;;;;;;2182366;58;20987;-72
2023/04/18 05:30:05;;;;;;;12.40;7.20;;;10.90;68.60;;;;;;2394406;57;21525;-75
2023/04/18 05:32:31;;;;;;;12.23;7.03;;;10.90;68.60;;;;;;2394045;57;21416;-73
2023/04/18 05:34:58;;;;;;;11.18;7.90;;;10.90;68.70;;;;;;2183703;58;21068;-74
2023/04/18 05:37:25;;;;;;;12.73;8.63;;;10.90;68.70;;;;;;2176497;57;21417;-74
2023/04/18 05:39:51;;;;;;;12.85;8.73;;;11.00;68.80;;;;;;2394619;57;20980;-73
2023/04/18 05:42:18;;;;;;;12.35;7.62;;;10.90;68.70;;;;;;2182287;58;20979;-73
2023/04/18 05:44:45;;;;;;;11.70;7.78;;;11.00;68.90;;;;;;2384473;57;21033;-73
2023/04/18 05:47:11;;;;;;;11.70;7.35;;;11.00;68.90;;;;;;2178553;57;21028;-72
2023/04/18 05:49:41;;;;;;;10.32;6.65;;;11.10;69.00;;;;;;2181085;58;21015;-75
2023/04/18 05:52:07;;;;;;;11.82;7.35;;;11.10;68.90;;;;;;2386755;57;21044;-70
2023/04/18 05:54:34;;;;;;;11.30;7.68;;;11.10;69.00;;;;;;2392248;57;21087;-71
2023/04/18 05:57:01;;;;;;;10.75;7.12;;;11.10;69.00;;;;;;2395161;57;21027;-72
2023/04/18 05:59:28;;;;;;;9.40;6.35;;;11.30;69.20;;;;;;2185606;58;21412;-73
2023/04/18 06:01:54;;;;;;;9.95;7.03;;;11.20;69.10;;;;;;2394451;57;20958;-73
2023/04/18 06:04:21;;;;;;;10.70;6.80;;;11.20;69.10;;;;;;2394687;57;20968;-72
2023/04/18 06:06:47;;;;;;;10.05;6.90;;;11.20;68.90;;;;;;2177369;57;21585;-72
2023/04/18 06:09:13;;;;;;;11.02;6.93;;;11.20;68.90;;;;;;2394322;57;21421;-73
2023/04/18 06:11:40;;;;;;;9.55;6.20;;;11.30;68.90;;;;;;2394473;57;20987;-73
2023/04/18 06:14:08;;;;;;;10.63;7.15;;;11.30;69.00;;;;;;2394757;57;21022;-74
2023/04/18 06:16:36;;;;;;;10.88;7.60;;;11.30;69.00;;;;;;2393651;57;21004;-73
2023/04/18 06:19:03;;;;;;;10.45;7.37;;;11.30;68.90;;;;;;2174097;57;21408;-74
2023/04/18 06:21:30;;;;;;;11.93;7.18;;;11.30;68.90;;;;;;2181994;58;21044;-71
2023/04/18 06:23:56;;;;;;;10.02;7.40;;;11.40;69.00;;;;;;2181575;58;21484;-73
2023/04/18 06:26:24;;;;;;;10.63;7.32;;;11.40;69.00;;;;;;2394718;57;20967;-73
2023/04/18 06:28:52;;;;;;;9.70;6.95;;;11.40;69.00;;;;;;2182671;58;21038;-74
2023/04/18 06:31:19;;;;;;;9.23;5.87;;;11.40;69.00;;;;;;2385609;57;20969;-74
2023/04/18 06:33:45;;;;;;;9.85;6.65;;;11.50;69.10;;;;;;2181178;57;20955;-71
2023/04/18 06:36:11;;;;;;;8.85;6.50;;;11.50;69.10;;;;;;2386472;57;21765;-72
2023/04/18 06:38:38;;;;;;;9.23;6.72;;;11.50;69.10;;;;;;2180070;57;20999;-72
2023/04/18 06:41:04;;;;;;;9.00;6.60;;;11.50;69.10;;;;;;2394793;57;21011;-73
2023/04/18 06:43:31;;;;;;;8.80;5.95;;;11.50;69.10;;;;;;2394578;57;21031;-72
2023/04/18 06:45:58;;;;;;;9.50;6.43;;;11.50;69.10;;;;;;2182427;58;21046;-72
2023/04/18 06:48:24;;;;;;;11.82;7.10;;;11.60;69.10;;;;;;2387287;57;21985;-75
2023/04/18 06:50:51;;;;;;;11.07;7.62;;;11.60;69.00;;;;;;2385631;57;20963;-74
2023/04/18 06:53:17;;;;;;;11.30;6.50;;;11.60;68.90;;;;;;2181790;58;20979;-74
2023/04/18 06:55:46;;;;;;;9.43;6.10;;;11.70;69.00;;;;;;2394883;57;21020;-73
2023/04/18 06:58:14;;;;;;;15.15;7.15;;;11.70;69.10;;;;;;2182674;58;21079;-74
2023/04/18 07:00:42;;;;;;;12.30;7.25;;;11.70;69.10;;;;;;2395149;57;21610;-73
2023/04/18 07:03:11;;;;;;;12.77;7.72;;;11.70;69.10;;;;;;2387844;57;21005;-74
2023/04/18 07:05:38;;;;;;;20.05;10.52;;;11.70;69.10;;;;;;2362319;58;20962;-74
2023/04/18 07:08:05;;;;;;;19.70;10.45;;;11.70;69.10;;;;;;2394868;57;21007;-74
2023/04/18 07:10:34;;;;;;;17.45;10.68;;;11.70;69.10;;;;;;2394540;57;21027;-74
2023/04/18 07:13:00;;;;;;;24.90;12.32;;;11.80;69.30;;;;;;2182089;58;20954;-73
2023/04/18 07:15:27;;;;;;;25.00;12.45;;;11.80;69.40;;;;;;2178947;57;20977;-74
2023/04/18 07:17:53;;;;;;;24.95;13.15;;;11.80;69.40;;;;;;2394229;57;20939;-74
2023/04/18 07:20:20;;;;;;;27.48;13.40;;;11.90;69.40;;;;;;2394818;57;20956;-74
2023/04/18 07:22:47;;;;;;;27.37;12.48;;;11.90;69.40;;;;;;2183534;58;20959;-74
2023/04/18 07:25:13;;;;;;;26.85;13.73;;;12.00;69.40;;;;;;2394239;57;21039;-75
2023/04/18 07:27:39;;;;;;;30.80;15.40;;;12.00;69.40;;;;;;2181936;58;21035;-72
2023/04/18 07:30:07;;;;;;;38.03;13.70;;;12.00;69.40;;;;;;2182391;58;21031;-74
2023/04/18 07:32:33;;;;;;;22.58;12.27;;;12.00;69.40;;;;;;2183001;58;21039;-75
2023/04/18 07:35:00;;;;;;;25.17;13.13;;;12.10;69.60;;;;;;2182775;58;21873;-74
2023/04/18 07:37:26;;;;;;;33.50;15.48;;;12.10;69.50;;;;;;2395282;57;21092;-74
2023/04/18 07:39:52;;;;;;;29.65;15.30;;;12.20;69.50;;;;;;2394719;57;20991;-74
2023/04/18 07:42:19;;;;;;;24.23;13.50;;;12.20;69.50;;;;;;2394151;57;21147;-73
2023/04/18 07:44:45;;;;;;;18.50;12.15;;;12.20;69.40;;;;;;2394763;57;21067;-73
2023/04/18 07:47:12;;;;;;;15.70;10.43;;;12.30;69.50;;;;;;2182291;58;20999;-74
2023/04/18 07:49:38;;;;;;;13.77;8.63;;;12.30;69.50;;;;;;2182563;58;21767;-75
2023/04/18 07:52:04;;;;;;;12.93;8.15;;;12.30;69.50;;;;;;2183249;58;21223;-73
2023/04/18 07:54:31;;;;;;;10.90;7.75;;;12.40;69.60;;;;;;2182824;58;21030;-74
2023/04/18 07:56:58;;;;;;;10.30;7.68;;;12.40;69.60;;;;;;2182723;58;21166;-72
2023/04/18 07:59:24;;;;;;;11.05;7.57;;;12.50;69.60;;;;;;2394905;57;21055;-73
2023/04/18 08:01:50;;;;;;;11.00;7.43;;;12.50;69.60;;;;;;2394841;57;21087;-74
2023/04/18 08:04:17;;;;;;;11.63;7.93;;;12.50;69.50;;;;;;2395153;57;21067;-73
2023/04/18 08:06:43;;;;;;;11.35;7.45;;;12.60;69.50;;;;;;2182790;58;21072;-74
2023/04/18 08:09:11;;;;;;;12.70;8.35;;;12.60;69.40;;;;;;2388712;57;21001;-73
2023/04/18 08:11:37;;;;;;;11.60;7.35;;;12.60;69.30;;;;;;2387019;57;21845;-72
2023/04/18 08:14:04;;;;;;;12.70;8.35;;;12.60;68.90;;;;;;2394363;57;21127;-73
2023/04/18 08:16:30;;;;;;;10.82;7.82;;;12.60;68.70;;;;;;2182949;58;20987;-72
2023/04/18 08:18:57;;;;;;;12.77;8.02;;;12.70;68.70;;;;;;2393915;57;21126;-73
2023/04/18 08:21:23;;;;;;;11.10;7.18;;;12.70;68.60;;;;;;2385377;57;20943;-73
2023/04/18 08:23:49;;;;;;;11.05;7.57;;;12.70;68.50;;;;;;2182428;58;20967;-73
2023/04/18 08:26:19;;;;;;;12.43;8.07;;;12.60;68.40;;;;;;2181965;58;20963;-73
2023/04/18 08:28:46;;;;;;;10.65;7.57;;;12.70;68.30;;;;;;2394982;57;21891;-73
2023/04/18 08:31:13;;;;;;;11.43;7.87;;;12.70;68.40;;;;;;2184823;58;21017;-74
2023/04/18 08:33:41;;;;;;;12.57;8.57;;;12.60;68.30;;;;;;2395581;57;20991;-74
2023/04/18 08:36:08;;;;;;;13.50;8.57;;;12.60;68.30;;;;;;2394720;57;21750;-74
2023/04/18 08:38:36;;;;;;;10.80;7.93;;;12.60;68.10;;;;;;2181577;58;25481;-73
2023/04/18 08:41:03;;;;;;;10.90;7.78;;;12.60;68.00;;;;;;2392797;57;21002;-74
2023/04/18 08:43:31;;;;;;;13.85;8.90;;;12.60;68.00;;;;;;2182694;58;21024;-74
2023/04/18 08:45:58;;;;;;;11.90;8.73;;;12.60;67.90;;;;;;2393902;57;21063;-74
2023/04/18 08:48:27;;;;;;;11.98;8.10;;;12.60;67.90;;;;;;2386343;57;21040;-74
2023/04/18 08:51:00;;;;;;;14.70;8.60;;;12.60;67.80;;;;;;2181123;58;21743;-73
2023/04/18 08:53:27;;;;;;;11.45;7.72;;;12.60;67.60;;;;;;2182330;58;20983;-74
2023/04/18 08:55:56;;;;;;;11.00;7.68;;;12.60;67.80;;;;;;2394462;57;21597;-74
2023/04/18 08:58:26;;;;;;;10.85;7.47;;;12.60;68.50;;;;;;2393902;57;21102;-74
2023/04/18 09:00:53;;;;;;;15.18;7.43;;;12.60;68.00;;;;;;2384250;57;21021;-74
2023/04/18 09:03:36;;;;;;;12.70;7.93;;;12.60;68.00;;;;;;2394275;57;21556;-74
2023/04/18 09:06:17;;;;;;;13.00;7.97;;;12.60;67.40;;;;;;2384454;57;21811;-74
2023/04/18 09:08:55;;;;;;;11.20;7.70;;;12.60;67.50;;;;;;2394571;57;21743;-74
2023/04/18 09:11:28;;;;;;;9.18;7.00;;;12.60;67.70;;;;;;2389960;57;20993;-73
2023/04/18 09:13:57;;;;;;;10.90;6.87;;;12.60;68.00;;;;;;2176986;57;21070;-74
2023/04/18 09:16:24;;;;;;;11.40;8.00;;;12.60;68.20;;;;;;2182192;58;21133;-74
2023/04/18 09:19:16;;;;;;;11.98;8.30;;;12.60;68.30;;;;;;2394540;57;20988;-74
2023/04/18 09:21:47;;;;;;;11.60;7.68;;;12.60;68.40;;;;;;2185689;58;20967;-74
2023/04/18 09:24:25;;;;;;;12.27;7.47;;;12.60;68.30;;;;;;2182736;58;21044;-73
2023/04/18 09:26:58;;;;;;;10.65;7.50;;;12.70;68.20;;;;;;2390033;57;21015;-74
2023/04/18 09:29:45;;;;;;;11.18;7.45;;;12.70;68.70;;;;;;2394508;57;21500;-74
2023/04/18 09:32:29;;;;;;;12.00;7.35;;;12.80;68.60;;;;;;2393944;57;20971;-74
2023/04/18 09:34:57;;;;;;;10.50;7.40;;;12.80;68.70;;;;;;2395005;57;21075;-74
2023/04/18 09:37:24;;;;;;;11.05;7.32;;;12.80;69.40;;;;;;2389104;57;20992;-74
2023/04/18 09:39:50;;;;;;;11.10;7.25;;;13.00;70.00;;;;;;2178289;57;21031;-74
2023/04/18 09:42:17;;;;;;;9.70;7.03;;;13.10;69.70;;;;;;2183831;58;21424;-75
2023/04/18 09:45:03;;;;;;;11.75;7.55;;;13.10;69.70;;;;;;2387164;57;21023;-74
2023/04/18 09:47:31;;;;;;;10.90;7.82;;;13.20;69.00;;;;;;2182243;58;21004;-74
2023/04/18 09:49:57;;;;;;;9.52;6.90;;;13.30;69.50;;;;;;2394841;57;21006;-74
2023/04/18 09:52:24;;;;;;;10.55;7.70;;;13.40;70.10;;;;;;2394954;57;20951;-75
2023/04/18 09:54:55;;;;;;;10.55;7.40;;;13.40;69.30;;;;;;2388613;57;21008;-75
2023/04/18 09:57:23;;;;;;;12.80;7.78;;;13.50;69.00;;;;;;2178713;57;21089;-75
2023/04/18 10:00:32;;;;;;;11.43;8.05;;;13.60;69.00;;;;;;2176014;57;21578;-74
2023/04/18 10:03:01;;;;;;;9.50;6.60;;;13.70;67.50;;;;;;2337768;57;1374888;-75
2023/04/18 10:05:31;;;;;;;10.32;7.00;;;13.70;68.50;;;;;;2182419;58;21894;-75
2023/04/18 10:07:58;;;;;;;11.88;7.12;;;13.70;68.30;;;;;;2393337;57;21828;-75
2023/04/18 10:10:24;;;;;;;10.07;7.03;;;13.70;68.40;;;;;;2182051;58;21086;-75
2023/04/18 10:12:52;;;;;;;11.68;7.82;;;13.80;68.40;;;;;;2394036;57;20995;-75
2023/04/18 10:15:20;;;;;;;10.20;7.35;;;13.80;68.20;;;;;;2394052;57;21047;-75
2023/04/18 10:18:07;;;;;;;12.18;8.35;;;13.80;68.10;;;;;;2182478;58;21109;-75
2023/04/18 10:20:33;;;;;;;11.52;7.78;;;13.80;67.30;;;;;;2181121;58;21868;-75
2023/04/18 10:23:21;;;;;;;11.38;7.80;;;13.80;67.90;;;;;;2393714;57;20983;-75
2023/04/18 10:25:49;;;;;;;10.02;6.90;;;13.90;67.80;;;;;;2395219;57;20995;-75
2023/04/18 10:28:15;;;;;;;10.77;7.45;;;13.90;68.00;;;;;;2181484;57;21000;-76
2023/04/18 10:30:52;;;;;;;11.55;7.20;;;13.90;68.00;;;;;;2389153;57;20972;-75
2023/04/18 10:33:40;;;;;;;11.75;7.30;;;13.90;67.70;;;;;;2394512;57;21340;-74
2023/04/18 10:36:19;;;;;;;11.20;7.53;;;13.90;67.40;;;;;;2182302;58;20995;-75
2023/04/18 10:39:23;;;;;;;10.35;7.00;;;14.00;67.80;;;;;;2395185;57;21112;-75
2023/04/18 10:41:49;;;;;;;12.73;7.75;;;14.00;67.10;;;;;;2182118;58;20963;-75
2023/04/18 10:44:21;;;;;;;10.30;7.28;;;14.00;68.20;;;;;;2385454;57;21025;-75
2023/04/18 10:47:33;;;;;;;10.70;7.45;;;14.10;68.20;;;;;;2181777;58;21508;-76
2023/04/18 10:50:00;;;;;;;10.73;7.97;;;14.10;67.20;;;;;;2394869;57;20963;-75
2023/04/18 10:52:27;;;;;;;9.63;7.37;;;14.20;68.60;;;;;;2385123;57;21499;-75
2023/04/18 10:55:15;;;;;;;10.27;6.97;;;14.20;68.80;;;;;;2183437;58;21794;-75
2023/04/18 10:57:43;;;;;;;10.00;7.35;;;14.30;68.50;;;;;;2395927;57;21508;-75
2023/04/18 11:00:11;;;;;;;12.57;7.65;;;14.30;69.10;;;;;;2183104;58;21039;-76
2023/04/18 11:02:37;;;;;;;11.02;7.22;;;14.40;69.30;;;;;;2396579;57;20975;-76
2023/04/18 11:05:05;;;;;;;9.02;6.37;;;14.50;69.40;;;;;;2394074;57;20998;-75
2023/04/18 11:07:46;;;;;;;8.90;6.53;;;14.50;69.30;;;;;;2183173;58;21038;-76
2023/04/18 11:10:14;;;;;;;10.88;7.55;;;14.60;69.10;;;;;;2179985;58;20987;-74
2023/04/18 11:12:41;;;;;;;9.43;6.10;;;14.70;69.60;;;;;;2396805;57;21007;-75
2023/04/18 11:15:11;;;;;;;8.15;5.97;;;14.80;69.80;;;;;;2183195;58;20975;-76
2023/04/18 11:17:38;;;;;;;8.65;5.93;;;14.80;69.70;;;;;;2396511;57;21012;-75
2023/04/18 11:20:11;;;;;;;8.48;5.85;;;14.90;69.90;;;;;;2184152;58;20987;-76
2023/04/18 11:22:53;;;;;;;8.73;5.28;;;15.00;69.90;;;;;;2186256;58;21119;-75
2023/04/18 11:25:31;;;;;;;8.93;5.78;;;15.10;69.30;;;;;;2186132;58;21047;-74
2023/04/18 11:28:01;;;;;;;9.20;5.93;;;15.20;69.70;;;;;;2398982;57;21000;-75
2023/04/18 11:30:44;;;;;;;8.75;6.32;;;15.30;69.60;;;;;;2397105;57;21079;-75
2023/04/18 11:33:12;;;;;;;10.48;6.87;;;15.40;69.20;;;;;;2184574;58;21023;-75
2023/04/18 11:35:39;;;;;;;9.27;6.22;;;15.40;69.60;;;;;;2185493;58;21003;-76
2023/04/18 11:38:06;;;;;;;9.73;7.10;;;15.50;69.70;;;;;;2180549;57;20984;-75
2023/04/18 11:40:32;;;;;;;9.35;6.53;;;15.60;69.60;;;;;;2183131;57;21027;-75
2023/04/18 11:43:03;;;;;;;9.20;6.03;;;15.60;69.60;;;;;;2184180;58;20939;-76
2023/04/18 11:45:30;;;;;;;9.13;6.30;;;15.70;69.40;;;;;;2184092;58;21613;-75
2023/04/18 11:47:57;;;;;;;9.15;6.10;;;15.80;69.60;;;;;;2183802;58;21584;-75
2023/04/18 11:50:23;;;;;;;10.15;6.95;;;15.90;69.70;;;;;;2183295;58;21426;-76
2023/04/18 11:52:52;;;;;;;8.38;6.25;;;15.90;69.60;;;;;;2391156;57;20961;-76
2023/04/18 11:55:22;;;;;;;10.95;8.10;;;15.90;69.40;;;;;;2179354;57;21023;-76
2023/04/18 11:57:57;;;;;;;11.40;8.27;;;16.00;69.10;;;;;;2396682;57;20963;-75
2023/04/18 12:00:59;;;;;;;11.82;7.80;;;16.00;68.30;;;;;;2395696;57;21007;-76
2023/04/18 12:03:27;;;;;;;12.15;7.93;;;16.10;67.70;;;;;;2395379;57;21014;-76
2023/04/18 12:05:59;;;;;;;12.57;8.20;;;16.10;68.70;;;;;;2394882;57;21052;-75
2023/04/18 12:08:27;;;;;;;12.18;8.27;;;16.10;67.90;;;;;;2396579;57;20975;-75
2023/04/18 12:10:53;;;;;;;10.65;7.62;;;16.10;68.20;;;;;;2395648;57;20967;-75
2023/04/18 12:13:29;;;;;;;10.55;7.68;;;16.20;68.30;;;;;;2395788;57;21063;-75
2023/04/18 12:15:56;;;;;;;11.10;8.27;;;16.20;68.00;;;;;;2184237;58;21081;-74
2023/04/18 12:18:23;;;;;;;11.98;8.65;;;16.20;68.30;;;;;;2183214;58;21765;-76
2023/04/18 12:20:51;;;;;;;13.02;8.18;;;16.20;68.20;;;;;;2395257;57;21460;-76
2023/04/18 12:23:37;;;;;;;11.65;7.95;;;16.30;67.90;;;;;;2394102;57;21015;-75
2023/04/18 12:26:10;;;;;;;9.68;6.93;;;16.30;67.00;;;;;;2182822;58;21048;-75
2023/04/18 12:28:37;;;;;;;10.32;7.35;;;16.30;68.00;;;;;;2395707;57;21476;-76
2023/04/18 12:31:08;;;;;;;10.18;6.95;;;16.30;68.10;;;;;;2182219;58;20975;-76
2023/04/18 12:33:35;;;;;;;9.85;6.93;;;16.40;68.10;;;;;;2183089;58;21107;-75
2023/04/18 12:36:01;;;;;;;9.65;6.95;;;16.40;68.10;;;;;;2395213;57;21030;-76
2023/04/18 12:38:28;;;;;;;11.40;8.18;;;16.50;68.20;;;;;;2183645;58;21043;-77
2023/04/18 12:40:54;;;;;;;10.52;7.55;;;16.50;68.10;;;;;;2396180;57;20971;-75
2023/04/18 12:43:22;;;;;;;10.98;7.28;;;16.50;68.00;;;;;;2395605;57;21048;-76
2023/04/18 12:45:48;;;;;;;11.20;8.18;;;16.50;68.00;;;;;;2396148;57;20971;-75
2023/04/18 12:48:15;;;;;;;10.65;7.85;;;16.60;68.10;;;;;;2184363;57;21052;-75